Emmalena, Kentucky
Current Conditions -  °F | °C
As of 5:53 PM on Wednesday 26 Nov 2014 (Local Time) from KJKL Reporting Station
Clear Clear  
Wind Chill: 38°   Ceiling: Unl
Heat Index: 42°   Visibility: 10mi
Dew Point: 26°   Wind: 6mph
Humidity: 53%   Direction: 300°WNW
Pressure: 29.99"   Gusts: NA
Location:  37.34°N, 82.98°W
Report Text: KJKL 262253Z AUTO 30005KT 10SM CLR 06/M03 A2999 RMK AO2 SLP162 T00561033
Loading
Personal Weather Stations






























Interactive Weather Map New forecast layout! Learn more

10-Day Weather Forecast

Advertisements
Track Severe Weather on mobile